createdAt,value
2023-03-10T00:00:35.408Z,7.06
2023-03-10T00:03:01.955Z,6.99
2023-03-10T00:05:31.677Z,7.08
2023-03-10T00:07:58.233Z,7.05
2023-03-10T00:10:24.782Z,7.23
2023-03-10T00:12:51.301Z,7.33
2023-03-10T00:15:17.912Z,7.39
2023-03-10T00:17:44.419Z,7.51
2023-03-10T00:20:12.633Z,7.56
2023-03-10T00:22:39.657Z,7.61
2023-03-10T00:25:07.399Z,7.60
2023-03-10T00:27:33.979Z,7.65
2023-03-10T00:30:00.552Z,7.63
2023-03-10T00:32:28.132Z,7.57
2023-03-10T00:34:54.745Z,7.55
2023-03-10T00:37:21.523Z,7.49
2023-03-10T00:39:52.616Z,7.46
2023-03-10T00:42:19.411Z,7.51
2023-03-10T00:44:46.501Z,7.48
2023-03-10T00:47:13.092Z,7.44
2023-03-10T00:49:47.569Z,7.45
2023-03-10T00:52:14.107Z,7.51
2023-03-10T00:54:41.721Z,7.45
2023-03-10T00:57:09.158Z,7.46
2023-03-10T00:59:49.479Z,7.41
2023-03-10T01:02:20.013Z,7.40
2023-03-10T01:04:48.344Z,7.29
2023-03-10T01:07:14.984Z,7.22
2023-03-10T01:09:42.531Z,7.18
2023-03-10T01:12:09.224Z,7.11
2023-03-10T01:14:35.737Z,7.03
2023-03-10T01:17:04.054Z,7.03
2023-03-10T01:19:30.912Z,6.98
2023-03-10T01:21:57.423Z,6.95
2023-03-10T01:24:23.977Z,6.95
2023-03-10T01:26:50.499Z,6.85
2023-03-10T01:29:19.575Z,6.87
2023-03-10T01:31:46.192Z,6.83
2023-03-10T01:34:12.793Z,6.79
2023-03-10T01:36:41.422Z,6.70
2023-03-10T01:39:10.835Z,6.67
2023-03-10T01:41:39.136Z,6.65
2023-03-10T01:44:11.909Z,6.61
2023-03-10T01:46:47.036Z,6.54
2023-03-10T01:49:25.937Z,6.48
2023-03-10T01:52:05.091Z,6.41
2023-03-10T01:54:46.648Z,6.37
2023-03-10T01:57:14.878Z,6.42
2023-03-10T01:59:41.943Z,6.39
2023-03-10T02:02:10.136Z,6.42
2023-03-10T02:04:44.122Z,6.50
2023-03-10T02:07:12.937Z,6.56
2023-03-10T02:09:44.198Z,6.59
2023-03-10T02:12:13.031Z,6.61
2023-03-10T02:14:40.290Z,6.59
2023-03-10T02:17:11.052Z,6.59
2023-03-10T02:20:01.534Z,6.61
2023-03-10T02:22:29.097Z,6.67
2023-03-10T02:25:01.441Z,6.76
2023-03-10T02:27:33.534Z,6.74
2023-03-10T02:30:06.700Z,6.74
2023-03-10T02:32:39.425Z,6.72
2023-03-10T02:35:06.228Z,6.70
2023-03-10T02:37:38.619Z,6.70
2023-03-10T02:40:31.944Z,6.78
2023-03-10T02:43:13.903Z,6.81
2023-03-10T02:45:44.440Z,6.85
2023-03-10T02:48:14.851Z,6.81
2023-03-10T02:50:43.849Z,6.79
2023-03-10T02:53:20.728Z,6.85
2023-03-10T02:55:48.728Z,6.80
2023-03-10T02:58:16.082Z,6.80
2023-03-10T03:00:45.418Z,6.76
2023-03-10T03:03:15.172Z,6.75
2023-03-10T03:05:42.405Z,6.76
2023-03-10T03:08:09.861Z,6.74
2023-03-10T03:10:37.583Z,6.76
2023-03-10T03:13:06.023Z,6.70
2023-03-10T03:15:34.001Z,6.78
2023-03-10T03:18:01.386Z,6.88
2023-03-10T03:20:31.774Z,6.88
2023-03-10T03:22:59.123Z,6.83
2023-03-10T03:25:28.821Z,6.85
2023-03-10T03:27:57.484Z,6.75
2023-03-10T03:30:27.118Z,6.76
2023-03-10T03:32:55.615Z,6.78
2023-03-10T03:35:26.364Z,6.83
2023-03-10T03:37:53.849Z,6.77
2023-03-10T03:40:24.553Z,6.72
2023-03-10T03:42:52.662Z,6.65
2023-03-10T03:45:22.538Z,6.60
2023-03-10T03:47:50.279Z,6.68
2023-03-10T03:50:19.105Z,6.74
2023-03-10T03:52:46.342Z,6.72
2023-03-10T03:55:16.373Z,6.64
2023-03-10T03:57:45.422Z,6.63
2023-03-10T04:00:23.200Z,6.67
2023-03-10T04:02:56.251Z,6.60
2023-03-10T04:05:23.856Z,6.52
2023-03-10T04:07:50.778Z,6.52
2023-03-10T04:10:21.418Z,6.49
2023-03-10T04:12:47.980Z,6.48
2023-03-10T04:15:14.612Z,6.60
2023-03-10T04:17:41.737Z,6.63
2023-03-10T04:20:10.049Z,6.55
2023-03-10T04:22:42.404Z,6.48
2023-03-10T04:25:10.922Z,6.55
2023-03-10T04:27:38.029Z,6.44
2023-03-10T04:30:07.116Z,6.40
2023-03-10T04:32:38.885Z,6.34
2023-03-10T04:35:07.816Z,6.32
2023-03-10T04:37:34.440Z,6.37
2023-03-10T04:40:03.241Z,6.35
2023-03-10T04:42:31.125Z,6.31
2023-03-10T04:44:57.919Z,6.24
2023-03-10T04:47:25.150Z,6.33
2023-03-10T04:49:51.868Z,6.36
2023-03-10T04:52:19.023Z,6.37
2023-03-10T04:54:47.448Z,6.42
2023-03-10T04:57:15.735Z,6.44
2023-03-10T04:59:43.849Z,6.43
2023-03-10T05:02:10.810Z,6.42
2023-03-10T05:04:37.509Z,6.36
2023-03-10T05:07:06.286Z,6.25
2023-03-10T05:09:37.509Z,6.22
2023-03-10T05:12:05.435Z,6.27
2023-03-10T05:14:34.720Z,6.15
2023-03-10T05:17:01.463Z,6.15
2023-03-10T05:19:29.193Z,6.14
2023-03-10T05:21:58.216Z,6.19
2023-03-10T05:24:24.980Z,6.20
2023-03-10T05:26:51.561Z,6.11
2023-03-10T05:29:20.145Z,6.04
2023-03-10T05:31:54.181Z,6.07
2023-03-10T05:34:26.877Z,6.12
2023-03-10T05:36:56.572Z,6.07
2023-03-10T05:39:23.437Z,6.11
2023-03-10T05:41:53.066Z,6.03
2023-03-10T05:44:20.499Z,6.05
2023-03-10T05:46:47.163Z,6.19
2023-03-10T05:49:13.797Z,6.18
2023-03-10T05:51:40.419Z,6.10
2023-03-10T05:54:07.152Z,6.08
2023-03-10T05:56:33.741Z,6.08
2023-03-10T05:59:02.060Z,6.11
2023-03-10T06:01:31.349Z,6.16
2023-03-10T06:04:00.030Z,6.12
2023-03-10T06:06:26.637Z,6.07
2023-03-10T06:08:53.144Z,6.08
2023-03-10T06:11:19.884Z,6.21
2023-03-10T06:13:46.421Z,6.26
2023-03-10T06:16:13.063Z,6.29
2023-03-10T06:18:39.633Z,6.26
2023-03-10T06:21:13.207Z,6.32
2023-03-10T06:23:40.118Z,6.28
2023-03-10T06:26:13.230Z,6.34
2023-03-10T06:28:42.123Z,6.38
2023-03-10T06:31:13.375Z,6.33
2023-03-10T06:33:39.910Z,6.22
2023-03-10T06:36:08.566Z,6.24
2023-03-10T06:38:35.235Z,6.32
2023-03-10T06:41:01.837Z,6.32
2023-03-10T06:43:28.388Z,6.35
2023-03-10T06:45:54.947Z,6.36
2023-03-10T06:48:21.525Z,6.37
2023-03-10T06:50:50.093Z,6.50
2023-03-10T06:53:19.572Z,6.53
2023-03-10T06:55:59.965Z,6.51
2023-03-10T06:58:26.938Z,6.47
2023-03-10T07:00:53.529Z,6.42
2023-03-10T07:03:20.371Z,6.49
2023-03-10T07:05:47.606Z,6.52
2023-03-10T07:08:14.174Z,6.63
2023-03-10T07:10:40.751Z,6.59
2023-03-10T07:13:07.982Z,6.51
2023-03-10T07:15:34.520Z,6.55
2023-03-10T07:18:01.113Z,6.58
2023-03-10T07:20:27.641Z,6.51
2023-03-10T07:22:54.180Z,6.47
2023-03-10T07:25:20.688Z,6.41
2023-03-10T07:27:47.227Z,6.35
2023-03-10T07:30:14.148Z,6.30
2023-03-10T07:32:40.750Z,6.36
2023-03-10T07:35:07.735Z,6.39
2023-03-10T07:37:38.035Z,6.36
2023-03-10T07:40:07.068Z,6.38
2023-03-10T07:42:33.786Z,6.35
2023-03-10T07:45:00.393Z,6.29
2023-03-10T07:47:27.066Z,6.33
2023-03-10T07:49:53.637Z,6.36
2023-03-10T07:52:20.470Z,6.52
2023-03-10T07:54:47.017Z,6.72
2023-03-10T07:57:14.532Z,6.89
2023-03-10T07:59:42.236Z,7.08
2023-03-10T08:02:12.318Z,7.23
2023-03-10T08:04:39.636Z,7.49
2023-03-10T08:07:06.508Z,7.67
2023-03-10T08:09:33.272Z,7.88
2023-03-10T08:12:01.210Z,7.97
2023-03-10T08:14:29.345Z,7.92
2023-03-10T08:16:56.691Z,7.96
2023-03-10T08:19:27.706Z,8.08
2023-03-10T08:21:55.950Z,8.19
2023-03-10T08:24:22.536Z,8.57
2023-03-10T08:26:49.156Z,8.88
2023-03-10T08:29:15.903Z,8.58
2023-03-10T08:31:42.978Z,8.48
2023-03-10T08:34:10.075Z,8.17
2023-03-10T08:36:36.713Z,7.94
2023-03-10T08:39:05.717Z,7.74
2023-03-10T08:41:38.773Z,7.61
2023-03-10T08:44:05.892Z,7.56
2023-03-10T08:46:33.066Z,7.30
2023-03-10T08:48:59.754Z,7.11
2023-03-10T08:51:27.127Z,7.02
2023-03-10T08:53:54.304Z,6.92
2023-03-10T08:56:22.701Z,6.82
2023-03-10T08:59:00.682Z,6.76
2023-03-10T09:01:30.253Z,6.88
2023-03-10T09:03:57.360Z,7.00
2023-03-10T09:06:25.069Z,7.06
2023-03-10T09:08:52.315Z,7.14
2023-03-10T09:11:28.092Z,7.11
2023-03-10T09:13:55.053Z,7.04
2023-03-10T09:16:21.634Z,6.92
2023-03-10T09:18:48.838Z,6.88
2023-03-10T09:21:17.488Z,6.86
2023-03-10T09:23:45.979Z,6.92
2023-03-10T09:26:13.040Z,6.96
2023-03-10T09:28:39.796Z,6.89
2023-03-10T09:31:08.183Z,6.95
2023-03-10T09:33:35.559Z,7.00
2023-03-10T09:36:07.348Z,7.03
2023-03-10T09:38:35.443Z,7.17
2023-03-10T09:41:23.142Z,7.07
2023-03-10T09:44:27.391Z,7.13
2023-03-10T09:47:21.296Z,7.15
2023-03-10T09:49:55.153Z,7.25
2023-03-10T09:52:31.268Z,7.18
2023-03-10T09:55:06.378Z,7.08
2023-03-10T09:57:34.299Z,7.20
2023-03-10T10:00:08.248Z,7.07
2023-03-10T10:02:41.512Z,7.16
2023-03-10T10:05:18.806Z,7.11
2023-03-10T10:07:50.483Z,7.12
2023-03-10T10:10:16.907Z,7.02
2023-03-10T10:12:44.506Z,7.08
2023-03-10T10:15:22.279Z,7.05
2023-03-10T10:18:22.675Z,7.07
2023-03-10T10:20:59.130Z,7.04
2023-03-10T10:23:32.767Z,7.05
2023-03-10T10:26:08.720Z,7.14
2023-03-10T10:29:36.339Z,7.26
2023-03-10T10:32:11.643Z,7.12
2023-03-10T10:34:43.461Z,6.99
2023-03-10T10:37:35.382Z,6.96
2023-03-10T10:40:23.842Z,6.99
2023-03-10T10:42:55.339Z,7.13
2023-03-10T10:45:27.397Z,7.21
2023-03-10T10:47:55.674Z,7.10
2023-03-10T10:50:25.626Z,7.21
2023-03-10T10:53:15.856Z,7.30
2023-03-10T10:55:45.393Z,7.23
2023-03-10T10:58:35.537Z,7.26
2023-03-10T11:01:08.963Z,7.13
2023-03-10T11:03:38.499Z,7.29
2023-03-10T11:06:25.053Z,7.55
2023-03-10T11:08:52.240Z,7.25
2023-03-10T11:11:29.352Z,6.99
2023-03-10T11:14:05.484Z,7.14
2023-03-10T11:16:40.903Z,7.07
2023-03-10T11:19:17.161Z,7.16
2023-03-10T11:21:51.806Z,7.36
2023-03-10T11:24:26.058Z,7.38
2023-03-10T11:27:01.652Z,7.34
2023-03-10T11:29:35.142Z,7.33
2023-03-10T11:32:18.810Z,7.23
2023-03-10T11:34:50.228Z,7.18
2023-03-10T11:37:30.003Z,7.25
2023-03-10T11:40:04.292Z,7.07
2023-03-10T11:42:43.059Z,6.89
2023-03-10T11:45:18.022Z,6.82
2023-03-10T11:48:22.200Z,6.65
2023-03-10T11:50:55.027Z,6.61
2023-03-10T11:53:44.103Z,6.70
2023-03-10T11:56:15.858Z,6.75
2023-03-10T11:58:48.354Z,6.73
2023-03-10T12:01:30.655Z,6.63
2023-03-10T12:04:12.835Z,6.52
2023-03-10T12:06:55.877Z,6.33
2023-03-10T12:09:51.920Z,6.16
2023-03-10T12:12:40.130Z,6.23
2023-03-10T12:15:25.109Z,6.23
2023-03-10T12:17:53.929Z,6.01
2023-03-10T12:20:20.453Z,5.96
2023-03-10T12:22:50.291Z,5.92
2023-03-10T12:25:29.077Z,5.93
2023-03-10T12:28:11.515Z,5.80
2023-03-10T12:30:58.924Z,5.66
2023-03-10T12:33:37.682Z,5.79
2023-03-10T12:36:13.159Z,5.96
2023-03-10T12:39:10.511Z,5.91
2023-03-10T12:41:56.375Z,6.08
2023-03-10T12:44:44.060Z,6.12
2023-03-10T12:47:18.936Z,6.32
2023-03-10T12:50:10.411Z,6.37
2023-03-10T12:52:47.742Z,6.29
2023-03-10T12:55:21.425Z,6.17
2023-03-10T12:57:56.478Z,6.10
2023-03-10T13:00:44.097Z,6.03
2023-03-10T13:03:10.578Z,6.00
2023-03-10T13:05:42.387Z,5.96
2023-03-10T13:08:17.609Z,5.99
2023-03-10T13:10:44.733Z,5.96
2023-03-10T13:13:16.040Z,6.02
2023-03-10T13:15:42.740Z,5.97
2023-03-10T13:18:20.749Z,6.03
2023-03-10T13:20:48.477Z,6.07
2023-03-10T13:23:27.733Z,6.12
2023-03-10T13:25:56.675Z,6.22
2023-03-10T13:28:25.084Z,6.34
2023-03-10T13:30:51.690Z,6.41
2023-03-10T13:33:26.056Z,6.42
2023-03-10T13:35:53.111Z,6.46
2023-03-10T13:38:21.821Z,6.29
2023-03-10T13:40:57.886Z,6.20
2023-03-10T13:43:35.115Z,6.19
2023-03-10T13:46:03.276Z,6.16
2023-03-10T13:48:32.359Z,6.23
2023-03-10T13:51:20.448Z,6.03
2023-03-10T13:53:49.904Z,6.08
2023-03-10T13:56:17.913Z,6.08
2023-03-10T13:58:46.066Z,6.06
2023-03-10T14:01:23.561Z,6.04
2023-03-10T14:04:08.866Z,5.94
2023-03-10T14:06:43.014Z,5.94
2023-03-10T14:09:23.305Z,5.93
2023-03-10T14:11:50.776Z,5.94
2023-03-10T14:14:32.263Z,5.88
2023-03-10T14:17:04.338Z,5.78
2023-03-10T14:19:43.017Z,5.83
2023-03-10T14:22:24.803Z,5.81
2023-03-10T14:24:51.700Z,5.66
2023-03-10T14:27:18.664Z,5.59
2023-03-10T14:29:56.725Z,5.48
2023-03-10T14:32:24.880Z,5.47
2023-03-10T14:34:51.956Z,5.57
2023-03-10T14:37:18.805Z,5.46
2023-03-10T14:39:45.515Z,5.24
2023-03-10T14:42:24.033Z,5.10
2023-03-10T14:44:51.197Z,5.07
2023-03-10T14:47:17.987Z,5.08
2023-03-10T14:49:44.787Z,5.13
2023-03-10T14:52:16.529Z,5.17
2023-03-10T14:54:42.915Z,5.14
2023-03-10T14:57:11.972Z,5.03
2023-03-10T14:59:39.776Z,5.00
2023-03-10T15:02:14.932Z,4.98
2023-03-10T15:04:41.536Z,4.98
2023-03-10T15:07:09.903Z,4.96
2023-03-10T15:09:36.633Z,4.78
2023-03-10T15:12:03.645Z,4.84
2023-03-10T15:14:30.573Z,4.76
2023-03-10T15:16:57.198Z,4.74
2023-03-10T15:19:26.795Z,4.75
2023-03-10T15:21:54.544Z,4.65
2023-03-10T15:24:21.355Z,4.64
2023-03-10T15:26:50.841Z,4.62
2023-03-10T15:29:19.813Z,4.69
2023-03-10T15:31:46.742Z,4.65
2023-03-10T15:34:13.662Z,4.66
2023-03-10T15:36:40.826Z,4.64
2023-03-10T15:39:07.582Z,4.60
2023-03-10T15:41:38.444Z,4.45
2023-03-10T15:44:06.158Z,4.48
2023-03-10T15:46:33.101Z,4.30
2023-03-10T15:49:03.437Z,4.17
2023-03-10T15:51:30.263Z,4.04
2023-03-10T15:53:56.921Z,4.18
2023-03-10T15:56:23.576Z,4.07
2023-03-10T15:58:50.535Z,4.11
2023-03-10T16:01:20.472Z,4.19
2023-03-10T16:03:50.403Z,4.14
2023-03-10T16:06:17.003Z,4.21
2023-03-10T16:08:43.625Z,4.13
2023-03-10T16:11:20.930Z,4.02
2023-03-10T16:13:51.577Z,4.04
2023-03-10T16:16:20.336Z,4.00
2023-03-10T16:18:47.441Z,3.99
2023-03-10T16:21:18.076Z,4.00
2023-03-10T16:23:45.388Z,3.99
2023-03-10T16:26:20.984Z,4.03
2023-03-10T16:28:50.795Z,3.93
2023-03-10T16:31:19.958Z,3.68
2023-03-10T16:33:48.182Z,3.36
2023-03-10T16:36:17.809Z,3.08
2023-03-10T16:38:44.701Z,2.99
2023-03-10T16:41:12.166Z,2.83
2023-03-10T16:43:39.663Z,2.78
2023-03-10T16:46:11.041Z,2.74
2023-03-10T16:48:42.863Z,2.74
2023-03-10T16:51:18.042Z,2.71
2023-03-10T16:53:45.203Z,2.72
2023-03-10T16:56:11.876Z,2.75
2023-03-10T16:58:38.556Z,2.77
2023-03-10T17:01:05.295Z,2.76
2023-03-10T17:03:39.366Z,2.81
2023-03-10T17:06:12.028Z,2.87
2023-03-10T17:08:40.042Z,2.90
2023-03-10T17:11:17.855Z,2.92
2023-03-10T17:13:47.145Z,2.95
2023-03-10T17:16:18.679Z,2.89
2023-03-10T17:18:46.280Z,2.85
2023-03-10T17:21:25.205Z,2.88
2023-03-10T17:23:52.388Z,2.87
2023-03-10T17:26:20.950Z,2.90
2023-03-10T17:28:49.534Z,2.92
2023-03-10T17:31:23.451Z,2.89
2023-03-10T17:41:36.371Z,2.94
2023-03-10T17:48:08.746Z,2.93
2023-03-10T17:50:47.448Z,3.03
2023-03-10T17:53:15.317Z,3.05
2023-03-10T17:55:48.423Z,3.06
2023-03-10T17:58:17.670Z,3.02
2023-03-10T18:00:45.431Z,2.99
2023-03-10T18:03:12.200Z,2.96
2023-03-10T18:05:42.721Z,2.95
2023-03-10T18:08:10.562Z,2.96
2023-03-10T18:10:38.207Z,2.93
2023-03-10T18:13:08.059Z,2.93
2023-03-10T18:15:35.123Z,2.87
2023-03-10T18:18:03.247Z,2.76
2023-03-10T18:20:29.898Z,2.70
2023-03-10T18:22:56.486Z,2.69
2023-03-10T18:25:23.016Z,2.56
2023-03-10T18:27:49.528Z,2.35
2023-03-10T18:30:16.338Z,2.26
2023-03-10T18:32:43.280Z,2.08
2023-03-10T18:35:11.292Z,2.07
2023-03-10T18:37:37.909Z,1.96
2023-03-10T18:40:06.005Z,1.93
2023-03-10T18:42:33.189Z,1.98
2023-03-10T18:44:59.768Z,1.96
2023-03-10T18:47:26.281Z,1.94
2023-03-10T18:49:52.815Z,2.01
2023-03-10T18:52:19.333Z,2.10
2023-03-10T18:54:49.063Z,2.11
2023-03-10T18:57:15.704Z,2.09
2023-03-10T18:59:42.686Z,2.05
2023-03-10T19:02:16.171Z,2.12
2023-03-10T19:04:47.645Z,2.21
2023-03-10T19:07:15.743Z,2.24
2023-03-10T19:09:42.305Z,2.14
2023-03-10T19:12:10.313Z,2.05
2023-03-10T19:14:36.942Z,1.94
2023-03-10T19:17:03.928Z,1.92
2023-03-10T19:19:30.579Z,1.88
2023-03-10T19:21:57.127Z,1.94
2023-03-10T19:24:23.984Z,1.77
2023-03-10T19:26:50.678Z,1.82
2023-03-10T19:29:17.226Z,1.80
2023-03-10T19:31:43.854Z,1.82
2023-03-10T19:34:10.581Z,1.76
2023-03-10T19:36:37.122Z,1.71
2023-03-10T19:39:03.653Z,1.74
2023-03-10T19:41:30.209Z,1.77
2023-03-10T19:43:57.927Z,1.77
2023-03-10T19:46:24.600Z,1.77
2023-03-10T19:48:51.250Z,1.79
2023-03-10T19:51:29.081Z,1.71
2023-03-10T19:53:57.352Z,1.74
2023-03-10T19:56:26.330Z,1.81
2023-03-10T19:58:52.948Z,1.80
2023-03-10T20:01:26.257Z,1.78
2023-03-10T20:03:55.710Z,1.72
2023-03-10T20:06:23.344Z,1.69
2023-03-10T20:08:50.056Z,1.67
2023-03-10T20:11:18.596Z,1.69
2023-03-10T20:13:46.210Z,1.65
2023-03-10T20:16:14.468Z,1.68
2023-03-10T20:18:41.815Z,1.69
2023-03-10T20:21:08.635Z,1.67
2023-03-10T20:23:35.389Z,1.72
2023-03-10T20:26:04.693Z,1.70
2023-03-10T20:28:32.115Z,1.76
2023-03-10T20:30:58.795Z,1.73
2023-03-10T20:33:26.070Z,1.57
2023-03-10T20:35:52.666Z,1.53
2023-03-10T20:38:19.197Z,1.45
2023-03-10T20:40:45.759Z,1.40
2023-03-10T20:43:12.381Z,1.41
2023-03-10T20:45:39.801Z,1.33
2023-03-10T20:48:06.921Z,1.26
2023-03-10T20:50:34.375Z,1.27
2023-03-10T20:53:01.007Z,1.19
2023-03-10T20:55:30.642Z,1.14
2023-03-10T20:57:59.496Z,1.06
2023-03-10T21:00:28.052Z,1.09
2023-03-10T21:02:57.170Z,1.08
2023-03-10T21:05:25.419Z,1.06
2023-03-10T21:07:52.192Z,1.03
2023-03-10T21:10:19.297Z,0.98
2023-03-10T21:12:46.085Z,0.88
2023-03-10T21:15:16.681Z,0.85
2023-03-10T21:17:43.559Z,0.82
2023-03-10T21:20:10.982Z,0.79
2023-03-10T21:22:39.338Z,0.73
2023-03-10T21:25:07.969Z,0.64
2023-03-10T21:27:35.498Z,0.60
2023-03-10T21:30:04.684Z,0.62
2023-03-10T21:32:32.298Z,0.54
2023-03-10T21:34:58.918Z,0.51
2023-03-10T21:37:25.528Z,0.53
2023-03-10T21:39:53.884Z,0.45
2023-03-10T21:42:20.849Z,0.47
2023-03-10T21:44:48.481Z,0.45
2023-03-10T21:47:15.058Z,0.47
2023-03-10T21:49:41.718Z,0.33
2023-03-10T21:52:09.428Z,0.33
2023-03-10T21:54:35.962Z,0.31
2023-03-10T21:57:02.520Z,0.24
2023-03-10T21:59:29.070Z,0.22
2023-03-10T22:01:55.670Z,0.23
2023-03-10T22:04:22.300Z,0.26
2023-03-10T22:06:48.889Z,0.20
2023-03-10T22:09:15.616Z,0.13
2023-03-10T22:11:42.137Z,0.11
2023-03-10T22:14:08.669Z,0.16
2023-03-10T22:16:35.172Z,0.19
2023-03-10T22:19:02.322Z,0.16
2023-03-10T22:21:28.868Z,0.13
2023-03-10T22:23:55.411Z,0.16
2023-03-10T22:26:21.899Z,0.11
2023-03-10T22:28:48.431Z,0.10
2023-03-10T22:31:15.706Z,0.10
2023-03-10T22:33:42.407Z,0.09
2023-03-10T22:36:12.421Z,0.10
2023-03-10T22:38:39.170Z,0.12
2023-03-10T22:41:11.124Z,0.16
2023-03-10T22:43:37.712Z,0.10
2023-03-10T22:46:13.237Z,0.12
2023-03-10T22:48:40.614Z,0.13
2023-03-10T22:51:13.240Z,0.11
2023-03-10T22:53:39.780Z,0.12
2023-03-10T22:56:06.503Z,0.20
2023-03-10T22:58:33.222Z,0.23
2023-03-10T23:00:59.937Z,0.23
2023-03-10T23:03:26.491Z,0.28
2023-03-10T23:05:53.066Z,0.23
2023-03-10T23:08:19.615Z,0.16
2023-03-10T23:10:46.151Z,0.06
2023-03-10T23:13:15.570Z,0.03
2023-03-10T23:15:43.345Z,0.05
2023-03-10T23:18:10.546Z,0.08
2023-03-10T23:20:40.610Z,0.06
2023-03-10T23:23:08.743Z,0.06
2023-03-10T23:25:42.028Z,0.03
2023-03-10T23:28:10.722Z,0.10
2023-03-10T23:30:40.384Z,0.19
2023-03-10T23:33:07.606Z,0.20
2023-03-10T23:35:35.195Z,0.25
2023-03-10T23:38:04.972Z,0.13
2023-03-10T23:40:32.584Z,0.14
2023-03-10T23:43:02.368Z,0.13
2023-03-10T23:45:31.055Z,0.03
2023-03-10T23:47:59.522Z,0.03
2023-03-10T23:50:29.384Z,-0.02
2023-03-10T23:52:56.711Z,0.00
2023-03-10T23:55:27.261Z,-0.01
2023-03-10T23:57:54.331Z,-0.09
